createdAt,value
2018-08-06T00:00:25.999Z,102023.83
2018-08-06T00:02:54.720Z,102011.39
2018-08-06T00:05:23.471Z,102007.68
2018-08-06T00:07:52.260Z,102007.56
2018-08-06T00:10:23.644Z,102011.95
2018-08-06T00:12:52.403Z,102010.84
2018-08-06T00:15:21.183Z,102017.84
2018-08-06T00:17:49.915Z,102017.38
2018-08-06T00:20:18.686Z,102012.67
2018-08-06T00:22:47.344Z,102010.02
2018-08-06T00:25:16.863Z,102005.88
2018-08-06T00:27:45.909Z,102012.76
2018-08-06T00:30:16.260Z,102005.67
2018-08-06T00:32:45.719Z,102006.52
2018-08-06T00:35:14.759Z,102010.02
2018-08-06T00:37:43.552Z,102006.05
2018-08-06T00:40:13.591Z,102003.96
2018-08-06T00:42:43.119Z,102003.14
2018-08-06T00:45:13.750Z,101996.99
2018-08-06T00:47:42.467Z,101990.38
2018-08-06T00:50:11.408Z,101989.52
2018-08-06T00:52:40.080Z,101990.17
2018-08-06T00:55:10.604Z,101990.38
2018-08-06T00:57:39.484Z,101992.24
2018-08-06T01:00:10.611Z,101992.58
2018-08-06T01:02:39.295Z,101988.55
2018-08-06T01:05:09.547Z,101988.17
2018-08-06T01:07:38.655Z,101982.19
2018-08-06T01:10:09.007Z,101987.62
2018-08-06T01:12:38.401Z,101972.13
2018-08-06T01:15:07.700Z,101971.19
2018-08-06T01:17:36.463Z,101970.33
2018-08-06T01:20:06.768Z,101968.28
2018-08-06T01:22:35.475Z,101968.75
2018-08-06T01:25:04.467Z,101968.84
2018-08-06T01:27:33.349Z,101968.95
2018-08-06T01:30:02.299Z,101961.61
2018-08-06T01:32:30.991Z,101965.58
2018-08-06T01:34:59.649Z,101954.88
2018-08-06T01:37:28.315Z,101954.40
2018-08-06T01:39:57.003Z,101946.93
2018-08-06T01:42:25.639Z,101943.81
2018-08-06T01:44:54.292Z,101944.20
2018-08-06T01:47:22.923Z,101945.61
2018-08-06T01:49:51.627Z,101939.58
2018-08-06T01:52:20.284Z,101942.95
2018-08-06T01:54:48.940Z,101939.25
2018-08-06T01:57:17.636Z,101939.63
2018-08-06T01:59:46.456Z,101935.53
2018-08-06T02:02:15.137Z,101936.86
2018-08-06T02:04:43.832Z,101925.07
2018-08-06T02:07:12.510Z,101924.60
2018-08-06T02:09:41.199Z,101925.80
2018-08-06T02:12:09.949Z,101923.16
2018-08-06T02:14:38.624Z,101925.33
2018-08-06T02:17:07.363Z,101918.72
2018-08-06T02:19:36.187Z,101918.80
2018-08-06T02:22:04.898Z,101911.84
2018-08-06T02:24:33.709Z,101911.45
2018-08-06T02:27:02.420Z,101911.20
2018-08-06T02:29:31.147Z,101910.34
2018-08-06T02:32:00.401Z,101904.58
2018-08-06T02:34:29.136Z,101905.17
2018-08-06T02:36:57.847Z,101903.47
2018-08-06T02:39:26.518Z,101899.15
2018-08-06T02:41:55.240Z,101895.65
2018-08-06T02:44:23.948Z,101897.91
2018-08-06T02:46:52.640Z,101899.36
2018-08-06T02:49:21.336Z,101900.69
2018-08-06T02:51:50.051Z,101895.61
2018-08-06T02:54:18.711Z,101891.25
2018-08-06T02:56:47.457Z,101887.41
2018-08-06T02:59:16.257Z,101882.20
2018-08-06T03:01:44.974Z,101878.73
2018-08-06T03:04:13.664Z,101874.27
2018-08-06T03:06:42.400Z,101874.27
2018-08-06T03:09:12.668Z,101872.59
2018-08-06T03:11:42.459Z,101871.02
2018-08-06T03:14:11.173Z,101871.57
2018-08-06T03:16:40.025Z,101867.25
2018-08-06T03:19:08.736Z,101866.88
2018-08-06T03:21:37.443Z,101864.23
2018-08-06T03:24:06.167Z,101863.75
2018-08-06T03:26:34.896Z,101856.67
2018-08-06T03:29:03.659Z,101850.52
2018-08-06T03:31:32.344Z,101841.27
2018-08-06T03:34:01.022Z,101839.47
2018-08-06T03:36:29.701Z,101842.84
2018-08-06T03:38:58.371Z,101837.94
2018-08-06T03:41:27.056Z,101834.31
2018-08-06T03:43:55.755Z,101833.75
2018-08-06T03:46:24.432Z,101834.09
2018-08-06T03:48:53.069Z,101830.86
2018-08-06T03:51:21.793Z,101824.24
2018-08-06T03:53:50.437Z,101825.00
2018-08-06T03:56:20.732Z,101823.55
2018-08-06T03:58:50.404Z,101819.97
2018-08-06T04:01:19.186Z,101814.20
2018-08-06T04:03:47.992Z,101819.37
2018-08-06T04:06:16.956Z,101811.81
2018-08-06T04:08:45.600Z,101820.95
2018-08-06T04:11:14.379Z,101811.22
2018-08-06T04:13:44.019Z,101810.74
2018-08-06T04:16:12.744Z,101805.92
2018-08-06T04:18:41.409Z,101807.63
2018-08-06T04:21:10.090Z,101806.64
2018-08-06T04:23:38.775Z,101811.84
2018-08-06T04:26:08.176Z,101804.85
2018-08-06T04:28:36.957Z,101805.33
2018-08-06T04:31:05.591Z,101806.77
2018-08-06T04:33:34.312Z,101809.41
2018-08-06T04:36:03.052Z,101806.39
2018-08-06T04:38:32.351Z,101804.22
2018-08-06T04:41:00.978Z,101805.06
2018-08-06T04:43:29.635Z,101805.45
2018-08-06T04:45:58.296Z,101802.67
2018-08-06T04:48:27.069Z,101804.00
2018-08-06T04:50:55.729Z,101803.52
2018-08-06T04:53:24.396Z,101800.03
2018-08-06T04:55:53.045Z,101802.20
2018-08-06T04:58:21.724Z,101801.26
2018-08-06T05:00:50.427Z,101804.73
2018-08-06T05:03:19.096Z,101802.58
2018-08-06T05:05:47.787Z,101800.28
2018-08-06T05:08:16.574Z,101801.13
2018-08-06T05:10:45.300Z,101804.63
2018-08-06T05:13:14.150Z,101800.66
2018-08-06T05:15:42.831Z,101799.69
2018-08-06T05:18:11.490Z,101800.66
2018-08-06T05:20:40.168Z,101800.66
2018-08-06T05:23:08.872Z,101796.56
2018-08-06T05:25:37.540Z,101800.06
2018-08-06T05:28:06.365Z,101801.64
2018-08-06T05:30:35.063Z,101805.14
2018-08-06T05:33:03.807Z,101801.17
2018-08-06T05:35:32.548Z,101809.49
2018-08-06T05:38:01.266Z,101803.69
2018-08-06T05:40:29.943Z,101809.36
2018-08-06T05:42:58.612Z,101812.86
2018-08-06T05:45:27.365Z,101814.53
2018-08-06T05:47:56.048Z,101813.20
2018-08-06T05:50:24.761Z,101814.19
2018-08-06T05:52:53.471Z,101812.14
2018-08-06T05:55:22.181Z,101806.34
2018-08-06T05:57:50.876Z,101805.52
2018-08-06T06:00:19.623Z,101808.16
2018-08-06T06:02:48.349Z,101811.16
2018-08-06T06:05:17.266Z,101808.52
2018-08-06T06:07:46.571Z,101803.59
2018-08-06T06:10:15.872Z,101802.37
2018-08-06T06:12:44.602Z,101807.66
2018-08-06T06:15:15.334Z,101811.63
2018-08-06T06:17:44.457Z,101808.64
2018-08-06T06:20:13.467Z,101810.81
2018-08-06T06:22:42.110Z,101808.16
2018-08-06T06:25:12.564Z,101809.11
2018-08-06T06:27:41.575Z,101815.34
2018-08-06T06:30:12.688Z,101808.64
2018-08-06T06:32:41.607Z,101808.04
2018-08-06T06:35:10.802Z,101803.95
2018-08-06T06:37:39.451Z,101804.70
2018-08-06T06:40:08.224Z,101805.64
2018-08-06T06:42:36.940Z,101804.10
2018-08-06T06:45:06.618Z,101804.30
2018-08-06T06:47:35.300Z,101804.42
2018-08-06T06:50:04.238Z,101800.09
2018-08-06T06:52:32.912Z,101804.10
2018-08-06T06:55:01.627Z,101810.41
2018-08-06T06:57:30.405Z,101809.67
2018-08-06T06:59:59.100Z,101812.86
2018-08-06T07:02:27.747Z,101812.61
2018-08-06T07:04:56.416Z,101815.41
2018-08-06T07:07:25.114Z,101808.91
2018-08-06T07:09:53.840Z,101809.19
2018-08-06T07:12:22.543Z,101804.70
2018-08-06T07:14:51.298Z,101800.48
2018-08-06T07:17:19.966Z,101804.20
2018-08-06T07:19:48.644Z,101799.04
2018-08-06T07:22:17.321Z,101798.56
2018-08-06T07:24:46.076Z,101799.38
2018-08-06T07:27:14.728Z,101800.36
2018-08-06T07:29:43.411Z,101799.27
2018-08-06T07:32:12.081Z,101797.46
2018-08-06T07:34:40.752Z,101799.89
2018-08-06T07:37:09.471Z,101803.48
2018-08-06T07:39:38.189Z,101798.41
2018-08-06T07:42:06.961Z,101801.19
2018-08-06T07:44:35.661Z,101799.61
2018-08-06T07:47:04.438Z,101796.59
2018-08-06T07:49:33.178Z,101793.24
2018-08-06T07:52:01.956Z,101794.81
2018-08-06T07:54:30.659Z,101795.41
2018-08-06T07:56:59.380Z,101792.78
2018-08-06T07:59:28.044Z,101794.73
2018-08-06T08:01:56.780Z,101795.13
2018-08-06T08:04:25.490Z,101793.69
2018-08-06T08:06:54.228Z,101786.48
2018-08-06T08:09:23.048Z,101792.52
2018-08-06T08:11:51.796Z,101785.59
2018-08-06T08:14:20.511Z,101784.30
2018-08-06T08:16:49.292Z,101778.73
2018-08-06T08:19:24.882Z,101782.23
2018-08-06T08:21:53.603Z,101784.05
2018-08-06T08:24:22.359Z,101781.77
2018-08-06T08:26:51.108Z,101778.87
2018-08-06T08:29:19.826Z,101779.48
2018-08-06T08:31:48.533Z,101782.00
2018-08-06T08:34:17.213Z,101781.99
2018-08-06T08:36:46.076Z,101784.03
2018-08-06T08:39:14.932Z,101778.75
2018-08-06T08:41:43.798Z,101780.06
2018-08-06T08:44:12.678Z,101781.47
2018-08-06T08:46:41.501Z,101785.09
2018-08-06T08:49:10.196Z,101781.56
2018-08-06T08:51:38.960Z,101781.52
2018-08-06T08:54:07.983Z,101776.67
2018-08-06T08:56:36.862Z,101778.68
2018-08-06T08:59:06.038Z,101780.47
2018-08-06T09:01:34.987Z,101778.29
2018-08-06T09:04:03.794Z,101777.81
2018-08-06T09:06:32.548Z,101777.67
2018-08-06T09:09:01.295Z,101775.61
2018-08-06T09:11:30.073Z,101773.33
2018-08-06T09:13:58.827Z,101777.45
2018-08-06T09:16:27.584Z,101774.28
2018-08-06T09:18:56.276Z,101773.92
2018-08-06T09:21:25.319Z,101773.52
2018-08-06T09:23:53.986Z,101766.59
2018-08-06T09:26:22.712Z,101762.91
2018-08-06T09:28:51.400Z,101760.58
2018-08-06T09:31:20.068Z,101755.45
2018-08-06T09:33:48.732Z,101754.01
2018-08-06T09:36:17.460Z,101753.49
2018-08-06T09:38:46.108Z,101746.84
2018-08-06T09:41:14.756Z,101760.77
2018-08-06T09:43:43.443Z,101755.01
2018-08-06T09:46:12.139Z,101756.16
2018-08-06T09:48:40.872Z,101743.66
2018-08-06T09:51:09.479Z,101737.08
2018-08-06T09:53:38.159Z,101740.25
2018-08-06T09:56:06.872Z,101737.91
2018-08-06T09:58:35.547Z,101736.46
2018-08-06T10:02:06.687Z,101738.76
2018-08-06T10:04:35.357Z,101736.84
2018-08-06T10:07:04.069Z,101733.38
2018-08-06T10:09:32.741Z,101731.25
2018-08-06T10:12:01.479Z,101733.91
2018-08-06T10:14:30.803Z,101738.13
2018-08-06T10:16:59.493Z,101731.05
2018-08-06T10:19:28.323Z,101728.48
2018-08-06T10:21:57.163Z,101729.63
2018-08-06T10:24:25.958Z,101730.96
2018-08-06T10:26:54.675Z,101719.38
2018-08-06T10:29:23.320Z,101719.64
2018-08-06T10:31:52.058Z,101719.03
2018-08-06T10:34:21.312Z,101714.67
2018-08-06T10:36:50.144Z,101722.88
2018-08-06T10:39:18.795Z,101718.19
2018-08-06T10:41:47.528Z,101721.15
2018-08-06T10:44:16.880Z,101719.25
2018-08-06T10:46:45.607Z,101712.31
2018-08-06T10:49:14.256Z,101709.01
2018-08-06T10:51:42.985Z,101703.08
2018-08-06T10:54:12.286Z,101706.83
2018-08-06T10:56:40.933Z,101707.80
2018-08-06T10:59:09.655Z,101705.67
2018-08-06T11:01:39.209Z,101703.02
2018-08-06T11:04:08.056Z,101713.12
2018-08-06T11:06:37.373Z,101703.52
2018-08-06T11:09:07.947Z,101703.57
2018-08-06T11:11:36.964Z,101699.45
2018-08-06T11:14:05.932Z,101694.61
2018-08-06T11:16:34.591Z,101700.91
2018-08-06T11:19:03.296Z,101696.27
2018-08-06T11:21:32.649Z,101700.47
2018-08-06T11:24:01.338Z,101692.78
2018-08-06T11:26:31.202Z,101693.33
2018-08-06T11:28:59.980Z,101689.41
2018-08-06T11:31:29.525Z,101679.55
2018-08-06T11:33:58.217Z,101692.73
2018-08-06T11:36:27.027Z,101677.30
2018-08-06T11:38:55.704Z,101680.16
2018-08-06T11:41:25.278Z,101679.68
2018-08-06T11:43:54.006Z,101672.97
2018-08-06T11:46:22.693Z,101680.25
2018-08-06T11:48:52.692Z,101667.08
2018-08-06T11:51:21.601Z,101670.26
2018-08-06T11:53:50.351Z,101663.16
2018-08-06T11:56:19.196Z,101662.59
2018-08-06T11:58:48.589Z,101672.20
2018-08-06T12:01:17.355Z,101664.00
2018-08-06T12:03:46.806Z,101663.84
2018-08-06T12:06:15.659Z,101656.89
2018-08-06T12:08:44.548Z,101661.58
2018-08-06T12:11:13.444Z,101651.52
2018-08-06T12:13:43.020Z,101647.20
2018-08-06T12:16:11.892Z,101645.30
2018-08-06T12:18:41.276Z,101643.68
2018-08-06T12:21:10.039Z,101648.25
2018-08-06T12:23:38.714Z,101642.80
2018-08-06T12:26:08.331Z,101652.21
2018-08-06T12:28:36.989Z,101656.73
2018-08-06T12:31:06.253Z,101656.45
2018-08-06T12:33:35.055Z,101654.67
2018-08-06T12:36:03.903Z,101666.88
2018-08-06T12:38:48.312Z,101655.88
2018-08-06T12:41:17.001Z,101653.09
2018-08-06T12:43:45.888Z,101649.77
2018-08-06T12:46:14.615Z,101647.22
2018-08-06T12:48:43.323Z,101652.93
2018-08-06T12:51:12.695Z,101649.69
2018-08-06T12:53:41.439Z,101651.57
2018-08-06T12:56:10.284Z,101649.01
2018-08-06T12:58:39.724Z,101654.64
2018-08-06T13:01:08.456Z,101648.66
2018-08-06T13:03:37.127Z,101647.40
2018-08-06T13:06:06.096Z,101649.09
2018-08-06T13:08:36.250Z,101640.59
2018-08-06T13:11:04.962Z,101648.44
2018-08-06T13:13:33.624Z,101645.00
2018-08-06T13:16:03.156Z,101647.97
2018-08-06T13:18:31.804Z,101641.98
2018-08-06T13:21:00.510Z,101638.33
2018-08-06T13:23:29.199Z,101639.20
2018-08-06T13:25:57.939Z,101630.69
2018-08-06T13:28:26.701Z,101639.92
2018-08-06T13:30:55.695Z,101637.45
2018-08-06T13:33:24.585Z,101626.33
2018-08-06T13:35:54.443Z,101625.91
2018-08-06T13:38:23.187Z,101627.06
2018-08-06T13:40:52.870Z,101615.75
2018-08-06T13:43:21.742Z,101622.81
2018-08-06T13:45:50.527Z,101621.49
2018-08-06T13:48:19.217Z,101626.58
2018-08-06T13:50:47.954Z,101633.27
2018-08-06T13:53:18.334Z,101626.52
2018-08-06T13:55:47.623Z,101630.33
2018-08-06T13:58:16.395Z,101620.52
2018-08-06T14:00:45.175Z,101625.86
2018-08-06T14:03:15.235Z,101617.53
2018-08-06T14:05:43.948Z,101617.19
2018-08-06T14:08:12.622Z,101614.81
2018-08-06T14:10:41.939Z,101609.52
2018-08-06T14:13:11.403Z,101603.41
2018-08-06T14:15:40.243Z,101604.88
2018-08-06T14:18:09.115Z,101602.18
2018-08-06T14:20:37.891Z,101601.34
2018-08-06T14:23:06.648Z,101598.91
2018-08-06T14:25:49.827Z,101594.19
2018-08-06T14:28:18.726Z,101593.92
2018-08-06T14:30:47.612Z,101595.98
2018-08-06T14:33:17.411Z,101587.35
2018-08-06T14:35:46.192Z,101590.44
2018-08-06T14:38:14.866Z,101592.13
2018-08-06T14:40:44.027Z,101593.52
2018-08-06T14:43:12.764Z,101596.20
2018-08-06T14:45:41.431Z,101591.16
2018-08-06T14:48:11.173Z,101584.42
2018-08-06T14:50:40.193Z,101591.71
2018-08-06T14:53:09.196Z,101585.73
2018-08-06T14:55:38.106Z,101582.88
2018-08-06T14:58:06.848Z,101582.56
2018-08-06T15:00:35.749Z,101592.36
2018-08-06T15:03:05.247Z,101590.70
2018-08-06T15:05:34.222Z,101591.61
2018-08-06T15:08:03.000Z,101587.86
2018-08-06T15:10:33.226Z,101595.50
2018-08-06T15:13:01.911Z,101575.65
2018-08-06T15:15:31.148Z,101580.01
2018-08-06T15:18:00.030Z,101588.84
2018-08-06T15:20:28.831Z,101573.88
2018-08-06T15:22:57.682Z,101576.73
2018-08-06T15:25:26.453Z,101570.91
2018-08-06T15:27:55.141Z,101575.59
2018-08-06T15:30:23.835Z,101573.66
2018-08-06T15:32:52.531Z,101567.48
2018-08-06T15:35:22.072Z,101565.27
2018-08-06T15:37:51.705Z,101562.97
2018-08-06T15:40:21.227Z,101555.01
2018-08-06T15:42:50.130Z,101555.86
2018-08-06T15:45:20.587Z,101550.28
2018-08-06T15:47:49.383Z,101547.03
2018-08-06T15:50:20.084Z,101561.48
2018-08-06T15:52:49.389Z,101556.45
2018-08-06T15:55:18.211Z,101544.13
2018-08-06T15:57:47.723Z,101544.63
2018-08-06T16:00:17.786Z,101545.66
2018-08-06T16:02:46.898Z,101547.27
2018-08-06T16:05:16.615Z,101540.48
2018-08-06T16:07:45.708Z,101537.88
2018-08-06T16:10:15.515Z,101531.28
2018-08-06T16:12:45.056Z,101527.61
2018-08-06T16:15:15.141Z,101523.59
2018-08-06T16:17:44.820Z,101518.73
2018-08-06T16:20:15.056Z,101517.55
2018-08-06T16:22:44.746Z,101524.59
2018-08-06T16:25:14.525Z,101510.05
2018-08-06T16:27:43.539Z,101515.61
2018-08-06T16:30:14.742Z,101514.97
2018-08-06T16:32:45.148Z,101504.77
2018-08-06T16:35:14.381Z,101503.31
2018-08-06T16:37:43.377Z,101506.33
2018-08-06T16:40:12.927Z,101501.64
2018-08-06T16:42:42.447Z,101499.97
2018-08-06T16:45:11.368Z,101490.91
2018-08-06T16:47:40.539Z,101496.95
2018-08-06T16:50:11.626Z,101492.58
2018-08-06T16:52:40.871Z,101493.41
2018-08-06T16:55:11.020Z,101487.70
2018-08-06T16:57:40.188Z,101492.86
2018-08-06T17:00:14.231Z,101484.64
2018-08-06T17:02:43.237Z,101487.11
2018-08-06T17:05:13.356Z,101486.38
2018-08-06T17:07:43.538Z,101477.49
2018-08-06T17:10:15.606Z,101483.66
2018-08-06T17:12:45.954Z,101481.62
2018-08-06T17:15:17.088Z,101478.89
2018-08-06T17:17:46.549Z,101479.24
2018-08-06T17:20:17.396Z,101490.52
2018-08-06T17:22:47.471Z,101476.89
2018-08-06T17:25:16.595Z,101474.91
2018-08-06T17:27:45.443Z,101473.09
2018-08-06T17:30:15.300Z,101480.52
2018-08-06T17:32:44.394Z,101472.35
2018-08-06T17:35:13.824Z,101470.39
2018-08-06T17:37:42.804Z,101464.39
2018-08-06T17:40:13.856Z,101463.41
2018-08-06T17:42:42.895Z,101472.33
2018-08-06T17:45:18.803Z,101478.82
2018-08-06T17:47:47.772Z,101471.73
2018-08-06T17:50:18.254Z,101473.27
2018-08-06T17:52:48.812Z,101468.80
2018-08-06T17:55:18.719Z,101473.94
2018-08-06T17:57:47.809Z,101468.00
2018-08-06T18:00:17.108Z,101475.05
2018-08-06T18:02:45.895Z,101474.45
2018-08-06T18:05:15.764Z,101479.14
2018-08-06T18:07:44.956Z,101471.11
2018-08-06T18:10:14.962Z,101468.29
2018-08-06T18:12:44.561Z,101471.80
2018-08-06T18:15:13.407Z,101466.23
2018-08-06T18:17:42.207Z,101463.62
2018-08-06T18:20:14.658Z,101463.32
2018-08-06T18:22:43.778Z,101458.84
2018-08-06T18:25:15.114Z,101463.04
2018-08-06T18:27:44.690Z,101460.77
2018-08-06T18:30:16.188Z,101461.48
2018-08-06T18:32:45.052Z,101459.17
2018-08-06T18:35:15.343Z,101456.76
2018-08-06T18:37:44.147Z,101466.48
2018-08-06T18:40:13.754Z,101458.23
2018-08-06T18:42:43.417Z,101460.26
2018-08-06T18:45:14.684Z,101452.30
2018-08-06T18:47:44.426Z,101453.48
2018-08-06T18:50:14.247Z,101455.42
2018-08-06T18:52:44.094Z,101458.70
2018-08-06T18:55:13.649Z,101457.98
2018-08-06T18:57:42.870Z,101456.06
2018-08-06T19:00:19.084Z,101450.73
2018-08-06T19:02:48.071Z,101459.89
2018-08-06T19:05:17.011Z,101454.53
2018-08-06T19:07:45.706Z,101456.68
2018-08-06T19:10:14.511Z,101455.50
2018-08-06T19:12:48.517Z,101454.67
2018-08-06T19:15:17.406Z,101457.83
2018-08-06T19:17:51.279Z,101457.77
2018-08-06T19:20:20.032Z,101455.10
2018-08-06T19:22:48.907Z,101455.27
2018-08-06T19:25:22.712Z,101452.12
2018-08-06T19:27:51.414Z,101451.80
2018-08-06T19:30:20.119Z,101456.42
2018-08-06T19:32:48.843Z,101457.54
2018-08-06T19:35:17.546Z,101454.31
2018-08-06T19:37:48.007Z,101456.86
2018-08-06T19:40:16.727Z,101456.75
2018-08-06T19:42:50.557Z,101456.66
2018-08-06T19:45:19.360Z,101450.16
2018-08-06T19:47:47.970Z,101446.81
2018-08-06T19:50:21.833Z,101449.37
2018-08-06T19:52:50.543Z,101441.19
2018-08-06T19:55:24.488Z,101445.64
2018-08-06T19:57:53.165Z,101451.42
2018-08-06T20:00:21.923Z,101453.97
2018-08-06T20:02:50.628Z,101445.04
2018-08-06T20:05:19.380Z,101449.72
2018-08-06T20:07:48.169Z,101452.13
2018-08-06T20:10:16.864Z,101447.78
2018-08-06T20:12:45.585Z,101447.55
2018-08-06T20:15:17.656Z,101445.14
2018-08-06T20:17:46.840Z,101442.25
2018-08-06T20:20:15.614Z,101443.20
2018-08-06T20:22:44.540Z,101445.85
2018-08-06T20:25:19.165Z,101451.62
2018-08-06T20:27:48.568Z,101443.95
2018-08-06T20:30:19.028Z,101439.84
2018-08-06T20:32:47.896Z,101442.24
2018-08-06T20:35:17.445Z,101445.60
2018-08-06T20:37:46.345Z,101440.67
2018-08-06T20:40:15.191Z,101445.35
2018-08-06T20:42:44.930Z,101443.69
2018-08-06T20:45:15.087Z,101441.84
2018-08-06T20:47:44.162Z,101434.28
2018-08-06T20:50:14.747Z,101443.77
2018-08-06T20:52:43.603Z,101441.35
2018-08-06T20:55:12.712Z,101438.37
2018-08-06T20:57:42.068Z,101437.14
2018-08-06T21:00:14.859Z,101442.44
2018-08-06T21:02:44.014Z,101441.11
2018-08-06T21:05:12.690Z,101441.48
2018-08-06T21:07:41.697Z,101445.08
2018-08-06T21:10:12.558Z,101450.74
2018-08-06T21:12:41.409Z,101447.63
2018-08-06T21:15:11.424Z,101444.98
2018-08-06T21:17:40.461Z,101446.77
2018-08-06T21:20:11.816Z,101446.77
2018-08-06T21:22:41.319Z,101442.09
2018-08-06T21:25:11.019Z,101434.02
2018-08-06T21:27:40.652Z,101435.33
2018-08-06T21:30:11.688Z,101432.82
2018-08-06T21:32:43.695Z,101431.59
2018-08-06T21:35:12.650Z,101431.13
2018-08-06T21:37:41.403Z,101428.00
2018-08-06T21:40:10.299Z,101427.63
2018-08-06T21:42:39.237Z,101423.19
2018-08-06T21:45:07.985Z,101425.60
2018-08-06T21:47:36.703Z,101426.92
2018-08-06T21:50:06.523Z,101422.02
2018-08-06T21:52:35.204Z,101418.86
2018-08-06T21:55:03.968Z,101423.58
2018-08-06T21:57:32.678Z,101413.95
2018-08-06T22:00:01.396Z,101410.35
2018-08-06T22:02:30.178Z,101406.38
2018-08-06T22:04:58.879Z,101407.47
2018-08-06T22:07:27.583Z,101421.64
2018-08-06T22:09:56.280Z,101428.00
2018-08-06T22:12:24.932Z,101426.20
2018-08-06T22:14:53.612Z,101429.80
2018-08-06T22:17:22.288Z,101425.36
2018-08-06T22:19:51.005Z,101421.77
2018-08-06T22:22:19.705Z,101422.11
2018-08-06T22:24:48.413Z,101424.51
2018-08-06T22:27:17.081Z,101422.09
2018-08-06T22:29:45.772Z,101414.39
2018-08-06T22:32:14.516Z,101413.20
2018-08-06T22:34:43.274Z,101403.57
2018-08-06T22:37:11.967Z,101396.96
2018-08-06T22:39:40.677Z,101402.72
2018-08-06T22:42:09.405Z,101398.28
2018-08-06T22:44:38.088Z,101392.05
2018-08-06T22:47:06.923Z,101386.38
2018-08-06T22:49:35.611Z,101388.55
2018-08-06T22:52:04.327Z,101382.08
2018-08-06T22:54:33.045Z,101382.30
2018-08-06T22:57:01.850Z,101398.41
2018-08-06T22:59:30.561Z,101393.72
2018-08-06T23:01:59.288Z,101401.28
2018-08-06T23:04:27.979Z,101395.61
2018-08-06T23:06:56.719Z,101396.59
2018-08-06T23:09:25.456Z,101392.83
2018-08-06T23:11:54.165Z,101382.48
2018-08-06T23:14:22.835Z,101378.74
2018-08-06T23:16:51.535Z,101373.59
2018-08-06T23:19:20.280Z,101380.67
2018-08-06T23:21:48.978Z,101381.52
2018-08-06T23:24:17.648Z,101375.25
2018-08-06T23:26:46.327Z,101379.34
2018-08-06T23:29:15.052Z,101374.16
2018-08-06T23:31:43.785Z,101364.09
2018-08-06T23:34:12.535Z,101359.75
2018-08-06T23:36:41.243Z,101350.12
2018-08-06T23:39:10.609Z,101342.19
2018-08-06T23:41:39.487Z,101345.31
2018-08-06T23:44:08.229Z,101347.14
2018-08-06T23:46:36.993Z,101341.86
2018-08-06T23:49:05.720Z,101340.40
2018-08-06T23:51:34.434Z,101337.89
2018-08-06T23:54:03.123Z,101336.19
2018-08-06T23:56:31.836Z,101336.42
2018-08-06T23:59:00.497Z,101335.80
